sensor_id;sensor_type;location;lat;lon;timestamp;temperature;humidity
65245;DHT22;51846;48.692;2.382;2023-09-19T00:01:07;16.87;75.22
65245;DHT22;51846;48.692;2.382;2023-09-19T00:03:34;16.83;75.31
65245;DHT22;51846;48.692;2.382;2023-09-19T00:06:00;16.83;75.23
65245;DHT22;51846;48.692;2.382;2023-09-19T00:08:26;16.79;75.29
65245;DHT22;51846;48.692;2.382;2023-09-19T00:10:53;16.77;75.41
65245;DHT22;51846;48.692;2.382;2023-09-19T00:13:20;16.80;75.40
65245;DHT22;51846;48.692;2.382;2023-09-19T00:15:47;16.77;75.66
65245;DHT22;51846;48.692;2.382;2023-09-19T00:18:19;16.84;75.39
65245;DHT22;51846;48.692;2.382;2023-09-19T00:20:47;16.77;75.59
65245;DHT22;51846;48.692;2.382;2023-09-19T00:23:16;16.79;75.74
65245;DHT22;51846;48.692;2.382;2023-09-19T00:25:42;16.83;75.49
65245;DHT22;51846;48.692;2.382;2023-09-19T00:28:07;16.89;75.41
65245;DHT22;51846;48.692;2.382;2023-09-19T00:30:34;16.87;75.31
65245;DHT22;51846;48.692;2.382;2023-09-19T00:32:59;16.84;75.27
65245;DHT22;51846;48.692;2.382;2023-09-19T00:35:26;16.83;75.49
65245;DHT22;51846;48.692;2.382;2023-09-19T00:37:53;16.82;75.42
65245;DHT22;51846;48.692;2.382;2023-09-19T00:40:19;16.82;75.59
65245;DHT22;51846;48.692;2.382;2023-09-19T00:42:45;16.80;75.48
65245;DHT22;51846;48.692;2.382;2023-09-19T00:45:12;16.77;75.68
65245;DHT22;51846;48.692;2.382;2023-09-19T00:47:42;16.69;76.08
65245;DHT22;51846;48.692;2.382;2023-09-19T00:50:09;16.70;76.09
65245;DHT22;51846;48.692;2.382;2023-09-19T00:52:36;16.65;76.37
65245;DHT22;51846;48.692;2.382;2023-09-19T00:55:08;16.53;76.49
65245;DHT22;51846;48.692;2.382;2023-09-19T00:57:34;16.59;76.56
65245;DHT22;51846;48.692;2.382;2023-09-19T01:00:02;16.63;76.44
65245;DHT22;51846;48.692;2.382;2023-09-19T01:02:32;16.53;76.60
65245;DHT22;51846;48.692;2.382;2023-09-19T01:04:58;16.65;76.47
65245;DHT22;51846;48.692;2.382;2023-09-19T01:07:24;16.65;76.42
65245;DHT22;51846;48.692;2.382;2023-09-19T01:09:50;16.68;76.37
65245;DHT22;51846;48.692;2.382;2023-09-19T01:12:23;16.60;76.55
65245;DHT22;51846;48.692;2.382;2023-09-19T01:14:56;16.33;77.49
65245;DHT22;51846;48.692;2.382;2023-09-19T01:17:40;16.41;77.30
65245;DHT22;51846;48.692;2.382;2023-09-19T01:20:29;16.49;77.12
65245;DHT22;51846;48.692;2.382;2023-09-19T01:26:05;16.55;76.94
65245;DHT22;51846;48.692;2.382;2023-09-19T01:28:35;16.51;76.91
65245;DHT22;51846;48.692;2.382;2023-09-19T01:31:09;16.47;77.01
65245;DHT22;51846;48.692;2.382;2023-09-19T01:36:28;16.30;77.39
65245;DHT22;51846;48.692;2.382;2023-09-19T01:38:55;16.41;77.36
65245;DHT22;51846;48.692;2.382;2023-09-19T01:41:46;16.32;77.17
65245;DHT22;51846;48.692;2.382;2023-09-19T01:44:19;16.32;77.54
65245;DHT22;51846;48.692;2.382;2023-09-19T01:46:47;15.94;78.33
65245;DHT22;51846;48.692;2.382;2023-09-19T01:49:27;15.98;78.47
65245;DHT22;51846;48.692;2.382;2023-09-19T01:52:11;15.98;78.82
65245;DHT22;51846;48.692;2.382;2023-09-19T01:54:50;16.05;78.49
65245;DHT22;51846;48.692;2.382;2023-09-19T01:59:57;15.98;78.70
65245;DHT22;51846;48.692;2.382;2023-09-19T02:02:25;16.01;78.66
65245;DHT22;51846;48.692;2.382;2023-09-19T02:04:50;16.07;78.52
65245;DHT22;51846;48.692;2.382;2023-09-19T02:07:17;16.07;78.44
65245;DHT22;51846;48.692;2.382;2023-09-19T02:09:42;16.05;78.57
65245;DHT22;51846;48.692;2.382;2023-09-19T02:12:09;16.02;78.73
65245;DHT22;51846;48.692;2.382;2023-09-19T02:14:34;16.07;78.65
65245;DHT22;51846;48.692;2.382;2023-09-19T02:17:01;15.80;79.27
65245;DHT22;51846;48.692;2.382;2023-09-19T02:19:28;15.71;79.79
65245;DHT22;51846;48.692;2.382;2023-09-19T02:21:55;15.65;79.96
65245;DHT22;51846;48.692;2.382;2023-09-19T02:24:20;15.80;79.90
65245;DHT22;51846;48.692;2.382;2023-09-19T02:26:45;15.90;79.46
65245;DHT22;51846;48.692;2.382;2023-09-19T02:29:11;15.83;79.55
65245;DHT22;51846;48.692;2.382;2023-09-19T02:31:38;15.60;80.38
65245;DHT22;51846;48.692;2.382;2023-09-19T02:34:03;15.57;80.47
65245;DHT22;51846;48.692;2.382;2023-09-19T02:36:30;15.73;80.09
65245;DHT22;51846;48.692;2.382;2023-09-19T02:38:56;15.61;80.27
65245;DHT22;51846;48.692;2.382;2023-09-19T02:41:21;15.43;80.90
65245;DHT22;51846;48.692;2.382;2023-09-19T02:43:46;15.63;80.39
65245;DHT22;51846;48.692;2.382;2023-09-19T02:46:12;15.51;80.61
65245;DHT22;51846;48.692;2.382;2023-09-19T02:48:38;15.67;80.18
65245;DHT22;51846;48.692;2.382;2023-09-19T02:51:03;15.68;79.99
65245;DHT22;51846;48.692;2.382;2023-09-19T02:53:29;15.67;80.02
65245;DHT22;51846;48.692;2.382;2023-09-19T02:55:56;15.74;79.78
65245;DHT22;51846;48.692;2.382;2023-09-19T02:58:21;15.70;79.75
65245;DHT22;51846;48.692;2.382;2023-09-19T03:00:48;15.64;79.75
65245;DHT22;51846;48.692;2.382;2023-09-19T03:03:17;15.63;80.00
65245;DHT22;51846;48.692;2.382;2023-09-19T03:05:42;15.67;79.89
65245;DHT22;51846;48.692;2.382;2023-09-19T03:08:13;15.71;79.77
65245;DHT22;51846;48.692;2.382;2023-09-19T03:10:40;15.70;79.72
65245;DHT22;51846;48.692;2.382;2023-09-19T03:13:06;15.55;80.14
65245;DHT22;51846;48.692;2.382;2023-09-19T03:15:35;15.32;80.86
65245;DHT22;51846;48.692;2.382;2023-09-19T03:18:04;15.30;80.77
65245;DHT22;51846;48.692;2.382;2023-09-19T03:20:29;15.49;80.46
65245;DHT22;51846;48.692;2.382;2023-09-19T03:22:54;15.55;80.16
65245;DHT22;51846;48.692;2.382;2023-09-19T03:25:20;15.32;80.66
65245;DHT22;51846;48.692;2.382;2023-09-19T03:27:47;15.22;81.02
65245;DHT22;51846;48.692;2.382;2023-09-19T03:30:13;15.07;81.43
65245;DHT22;51846;48.692;2.382;2023-09-19T03:32:46;15.06;81.74
65245;DHT22;51846;48.692;2.382;2023-09-19T03:35:12;14.95;82.11
65245;DHT22;51846;48.692;2.382;2023-09-19T03:37:40;14.78;82.58
65245;DHT22;51846;48.692;2.382;2023-09-19T03:40:07;14.80;82.56
65245;DHT22;51846;48.692;2.382;2023-09-19T03:42:32;14.88;82.32
65245;DHT22;51846;48.692;2.382;2023-09-19T03:44:58;15.16;81.45
65245;DHT22;51846;48.692;2.382;2023-09-19T03:47:24;15.24;81.18
65245;DHT22;51846;48.692;2.382;2023-09-19T03:49:50;15.32;81.04
65245;DHT22;51846;48.692;2.382;2023-09-19T03:52:15;15.32;80.72
65245;DHT22;51846;48.692;2.382;2023-09-19T03:54:41;15.00;81.64
65245;DHT22;51846;48.692;2.382;2023-09-19T03:57:06;14.73;82.44
65245;DHT22;51846;48.692;2.382;2023-09-19T03:59:32;14.82;82.43
65245;DHT22;51846;48.692;2.382;2023-09-19T04:01:57;14.86;82.39
65245;DHT22;51846;48.692;2.382;2023-09-19T04:04:23;14.95;82.01
65245;DHT22;51846;48.692;2.382;2023-09-19T04:06:51;14.99;82.00
65245;DHT22;51846;48.692;2.382;2023-09-19T04:09:16;14.99;81.83
65245;DHT22;51846;48.692;2.382;2023-09-19T04:11:41;14.78;82.40
65245;DHT22;51846;48.692;2.382;2023-09-19T04:14:07;14.85;82.28
65245;DHT22;51846;48.692;2.382;2023-09-19T04:16:32;14.93;82.13
65245;DHT22;51846;48.692;2.382;2023-09-19T04:18:57;14.99;81.91
65245;DHT22;51846;48.692;2.382;2023-09-19T04:21:23;15.06;81.48
65245;DHT22;51846;48.692;2.382;2023-09-19T04:23:48;15.03;81.69
65245;DHT22;51846;48.692;2.382;2023-09-19T04:26:13;15.10;81.37
65245;DHT22;51846;48.692;2.382;2023-09-19T04:28:41;15.10;81.39
65245;DHT22;51846;48.692;2.382;2023-09-19T04:31:09;15.19;81.38
65245;DHT22;51846;48.692;2.382;2023-09-19T04:33:35;15.16;81.26
65245;DHT22;51846;48.692;2.382;2023-09-19T04:36:01;15.14;81.26
65245;DHT22;51846;48.692;2.382;2023-09-19T04:38:28;15.13;81.39
65245;DHT22;51846;48.692;2.382;2023-09-19T04:40:57;15.06;81.76
65245;DHT22;51846;48.692;2.382;2023-09-19T04:43:24;14.95;82.17
65245;DHT22;51846;48.692;2.382;2023-09-19T04:45:50;14.85;82.67
65245;DHT22;51846;48.692;2.382;2023-09-19T04:48:16;14.79;82.78
65245;DHT22;51846;48.692;2.382;2023-09-19T04:50:41;14.61;83.39
65245;DHT22;51846;48.692;2.382;2023-09-19T04:53:06;14.46;83.70
65245;DHT22;51846;48.692;2.382;2023-09-19T04:55:32;14.41;83.98
65245;DHT22;51846;48.692;2.382;2023-09-19T04:57:58;14.48;83.88
65245;DHT22;51846;48.692;2.382;2023-09-19T05:00:23;14.55;83.68
65245;DHT22;51846;48.692;2.382;2023-09-19T05:02:50;14.61;83.46
65245;DHT22;51846;48.692;2.382;2023-09-19T05:05:17;14.61;83.63
65245;DHT22;51846;48.692;2.382;2023-09-19T05:07:44;14.55;83.67
65245;DHT22;51846;48.692;2.382;2023-09-19T05:10:10;14.66;83.27
65245;DHT22;51846;48.692;2.382;2023-09-19T05:12:37;14.55;83.40
65245;DHT22;51846;48.692;2.382;2023-09-19T05:15:03;14.46;83.92
65245;DHT22;51846;48.692;2.382;2023-09-19T05:17:29;14.46;83.75
65245;DHT22;51846;48.692;2.382;2023-09-19T05:19:55;14.46;83.98
65245;DHT22;51846;48.692;2.382;2023-09-19T05:22:20;14.69;83.12
65245;DHT22;51846;48.692;2.382;2023-09-19T05:24:45;14.78;82.74
65245;DHT22;51846;48.692;2.382;2023-09-19T05:27:17;14.82;82.59
65245;DHT22;51846;48.692;2.382;2023-09-19T05:29:45;14.80;82.58
65245;DHT22;51846;48.692;2.382;2023-09-19T05:32:11;14.75;82.79
65245;DHT22;51846;48.692;2.382;2023-09-19T05:34:37;14.35;83.94
65245;DHT22;51846;48.692;2.382;2023-09-19T05:37:03;14.45;83.89
65245;DHT22;51846;48.692;2.382;2023-09-19T05:39:28;14.34;84.15
65245;DHT22;51846;48.692;2.382;2023-09-19T05:41:54;14.52;83.67
65245;DHT22;51846;48.692;2.382;2023-09-19T05:44:20;14.42;83.77
65245;DHT22;51846;48.692;2.382;2023-09-19T05:46:45;14.42;83.70
65245;DHT22;51846;48.692;2.382;2023-09-19T05:49:13;14.39;83.93
65245;DHT22;51846;48.692;2.382;2023-09-19T05:51:38;14.18;84.45
65245;DHT22;51846;48.692;2.382;2023-09-19T05:54:04;14.13;84.92
65245;DHT22;51846;48.692;2.382;2023-09-19T05:56:30;14.05;85.16
65245;DHT22;51846;48.692;2.382;2023-09-19T05:58:56;14.20;84.70
65245;DHT22;51846;48.692;2.382;2023-09-19T06:01:21;14.11;84.95
65245;DHT22;51846;48.692;2.382;2023-09-19T06:03:47;14.13;84.87
65245;DHT22;51846;48.692;2.382;2023-09-19T06:06:13;14.14;84.87
65245;DHT22;51846;48.692;2.382;2023-09-19T06:08:39;14.37;84.34
65245;DHT22;51846;48.692;2.382;2023-09-19T06:11:04;14.39;84.00
65245;DHT22;51846;48.692;2.382;2023-09-19T06:13:34;14.31;84.35
65245;DHT22;51846;48.692;2.382;2023-09-19T06:16:00;14.32;84.33
65245;DHT22;51846;48.692;2.382;2023-09-19T06:18:30;14.49;83.85
65245;DHT22;51846;48.692;2.382;2023-09-19T06:20:58;14.39;84.08
65245;DHT22;51846;48.692;2.382;2023-09-19T06:23:24;14.41;84.08
65245;DHT22;51846;48.692;2.382;2023-09-19T06:25:52;14.34;84.22
65245;DHT22;51846;48.692;2.382;2023-09-19T06:28:18;14.31;84.19
65245;DHT22;51846;48.692;2.382;2023-09-19T06:30:49;14.35;83.91
65245;DHT22;51846;48.692;2.382;2023-09-19T06:33:14;14.46;83.61
65245;DHT22;51846;48.692;2.382;2023-09-19T06:35:40;14.52;83.43
65245;DHT22;51846;48.692;2.382;2023-09-19T06:38:07;14.45;83.56
65245;DHT22;51846;48.692;2.382;2023-09-19T06:40:34;14.61;83.18
65245;DHT22;51846;48.692;2.382;2023-09-19T06:42:59;14.64;83.07
65245;DHT22;51846;48.692;2.382;2023-09-19T06:45:27;14.52;83.16
65245;DHT22;51846;48.692;2.382;2023-09-19T06:47:53;14.73;82.84
65245;DHT22;51846;48.692;2.382;2023-09-19T06:50:23;14.88;82.38
65245;DHT22;51846;48.692;2.382;2023-09-19T06:52:53;14.79;82.22
65245;DHT22;51846;48.692;2.382;2023-09-19T06:55:20;14.73;82.14
65245;DHT22;51846;48.692;2.382;2023-09-19T06:57:46;14.79;81.99
65245;DHT22;51846;48.692;2.382;2023-09-19T07:00:13;14.96;81.89
65245;DHT22;51846;48.692;2.382;2023-09-19T07:02:44;14.99;81.61
65245;DHT22;51846;48.692;2.382;2023-09-19T07:05:10;15.07;81.37
65245;DHT22;51846;48.692;2.382;2023-09-19T07:07:35;14.89;81.66
65245;DHT22;51846;48.692;2.382;2023-09-19T07:10:02;14.95;81.50
65245;DHT22;51846;48.692;2.382;2023-09-19T07:12:27;15.09;80.94
65245;DHT22;51846;48.692;2.382;2023-09-19T07:14:52;15.04;81.01
65245;DHT22;51846;48.692;2.382;2023-09-19T07:17:18;15.10;81.14
65245;DHT22;51846;48.692;2.382;2023-09-19T07:19:44;15.09;81.00
65245;DHT22;51846;48.692;2.382;2023-09-19T07:22:10;15.06;80.97
65245;DHT22;51846;48.692;2.382;2023-09-19T07:24:35;14.90;81.34
65245;DHT22;51846;48.692;2.382;2023-09-19T07:27:02;14.92;81.30
65245;DHT22;51846;48.692;2.382;2023-09-19T07:29:27;14.89;81.71
65245;DHT22;51846;48.692;2.382;2023-09-19T07:31:52;14.99;81.58
65245;DHT22;51846;48.692;2.382;2023-09-19T07:34:21;15.12;81.23
65245;DHT22;51846;48.692;2.382;2023-09-19T07:36:48;15.24;80.86
65245;DHT22;51846;48.692;2.382;2023-09-19T07:39:13;15.36;80.64
65245;DHT22;51846;48.692;2.382;2023-09-19T07:41:39;15.40;80.02
65245;DHT22;51846;48.692;2.382;2023-09-19T07:44:04;15.51;79.59
65245;DHT22;51846;48.692;2.382;2023-09-19T07:46:30;15.57;79.37
65245;DHT22;51846;48.692;2.382;2023-09-19T07:48:57;15.54;79.55
65245;DHT22;51846;48.692;2.382;2023-09-19T07:51:22;15.57;79.40
65245;DHT22;51846;48.692;2.382;2023-09-19T07:53:48;15.61;79.31
65245;DHT22;51846;48.692;2.382;2023-09-19T07:56:13;15.67;79.16
65245;DHT22;51846;48.692;2.382;2023-09-19T07:58:39;15.78;78.86
65245;DHT22;51846;48.692;2.382;2023-09-19T08:01:07;15.83;78.45
65245;DHT22;51846;48.692;2.382;2023-09-19T08:03:36;15.84;78.61
65245;DHT22;51846;48.692;2.382;2023-09-19T08:06:06;15.84;77.95
65245;DHT22;51846;48.692;2.382;2023-09-19T08:08:33;15.88;77.88
65245;DHT22;51846;48.692;2.382;2023-09-19T08:11:03;15.95;78.06
65245;DHT22;51846;48.692;2.382;2023-09-19T08:13:35;15.98;77.60
65245;DHT22;51846;48.692;2.382;2023-09-19T08:16:00;16.02;76.62
65245;DHT22;51846;48.692;2.382;2023-09-19T08:18:26;16.04;76.80
65245;DHT22;51846;48.692;2.382;2023-09-19T08:20:55;16.19;76.53
65245;DHT22;51846;48.692;2.382;2023-09-19T08:23:20;16.28;76.20
65245;DHT22;51846;48.692;2.382;2023-09-19T08:25:47;16.42;75.66
65245;DHT22;51846;48.692;2.382;2023-09-19T08:28:12;16.39;75.74
65245;DHT22;51846;48.692;2.382;2023-09-19T08:30:42;16.36;75.12
65245;DHT22;51846;48.692;2.382;2023-09-19T08:33:08;16.41;74.54
65245;DHT22;51846;48.692;2.382;2023-09-19T08:35:33;16.47;74.45
65245;DHT22;51846;48.692;2.382;2023-09-19T08:37:59;16.51;74.63
65245;DHT22;51846;48.692;2.382;2023-09-19T08:40:30;16.47;74.24
65245;DHT22;51846;48.692;2.382;2023-09-19T08:42:59;16.52;74.29
65245;DHT22;51846;48.692;2.382;2023-09-19T08:45:26;16.62;73.96
65245;DHT22;51846;48.692;2.382;2023-09-19T08:50:36;16.80;72.87
65245;DHT22;51846;48.692;2.382;2023-09-19T08:53:20;16.80;72.91
65245;DHT22;51846;48.692;2.382;2023-09-19T08:55:50;16.86;72.36
65245;DHT22;51846;48.692;2.382;2023-09-19T08:58:19;16.94;71.83
65245;DHT22;51846;48.692;2.382;2023-09-19T09:00:55;17.02;71.94
65245;DHT22;51846;48.692;2.382;2023-09-19T09:03:29;17.04;71.89
65245;DHT22;51846;48.692;2.382;2023-09-19T09:05:57;17.14;71.42
65245;DHT22;51846;48.692;2.382;2023-09-19T09:08:24;17.27;71.56
65245;DHT22;51846;48.692;2.382;2023-09-19T09:10:50;17.31;71.42
65245;DHT22;51846;48.692;2.382;2023-09-19T09:13:17;17.47;70.48
65245;DHT22;51846;48.692;2.382;2023-09-19T09:15:43;17.54;70.92
65245;DHT22;51846;48.692;2.382;2023-09-19T09:18:10;17.63;69.88
65245;DHT22;51846;48.692;2.382;2023-09-19T09:20:36;17.64;69.40
65245;DHT22;51846;48.692;2.382;2023-09-19T09:23:01;17.68;69.38
65245;DHT22;51846;48.692;2.382;2023-09-19T09:25:50;17.84;68.72
65245;DHT22;51846;48.692;2.382;2023-09-19T09:28:21;17.85;68.47
65245;DHT22;51846;48.692;2.382;2023-09-19T09:30:47;17.95;68.04
65245;DHT22;51846;48.692;2.382;2023-09-19T09:33:14;17.98;67.74
65245;DHT22;51846;48.692;2.382;2023-09-19T09:38:19;17.99;68.00
65245;DHT22;51846;48.692;2.382;2023-09-19T09:40:49;18.04;68.45
65245;DHT22;51846;48.692;2.382;2023-09-19T09:43:36;18.12;67.82
65245;DHT22;51846;48.692;2.382;2023-09-19T09:46:07;18.24;67.25
65245;DHT22;51846;48.692;2.382;2023-09-19T09:51:36;18.28;67.61
65245;DHT22;51846;48.692;2.382;2023-09-19T09:56:55;18.64;67.53
65245;DHT22;51846;48.692;2.382;2023-09-19T10:00:03;18.72;67.45
65245;DHT22;51846;48.692;2.382;2023-09-19T10:02:36;18.69;66.83
65245;DHT22;51846;48.692;2.382;2023-09-19T10:05:32;18.76;67.18
65245;DHT22;51846;48.692;2.382;2023-09-19T10:08:11;18.84;66.85
65245;DHT22;51846;48.692;2.382;2023-09-19T10:10:39;18.93;66.19
65245;DHT22;51846;48.692;2.382;2023-09-19T10:13:09;18.96;65.29
65245;DHT22;51846;48.692;2.382;2023-09-19T10:15:39;18.94;65.17
65245;DHT22;51846;48.692;2.382;2023-09-19T10:18:11;19.06;64.39
65245;DHT22;51846;48.692;2.382;2023-09-19T10:20:43;19.14;64.10
65245;DHT22;51846;48.692;2.382;2023-09-19T10:23:11;19.16;64.28
65245;DHT22;51846;48.692;2.382;2023-09-19T10:25:41;19.24;63.88
65245;DHT22;51846;48.692;2.382;2023-09-19T10:28:09;19.38;63.93
65245;DHT22;51846;48.692;2.382;2023-09-19T10:30:41;19.48;62.45
65245;DHT22;51846;48.692;2.382;2023-09-19T10:33:09;19.58;62.30
65245;DHT22;51846;48.692;2.382;2023-09-19T10:35:38;19.69;62.33
65245;DHT22;51846;48.692;2.382;2023-09-19T10:38:06;19.74;62.19
65245;DHT22;51846;48.692;2.382;2023-09-19T10:40:32;19.88;61.13
65245;DHT22;51846;48.692;2.382;2023-09-19T10:43:05;19.89;61.08
65245;DHT22;51846;48.692;2.382;2023-09-19T10:45:32;19.91;60.71
65245;DHT22;51846;48.692;2.382;2023-09-19T10:48:02;19.82;59.75
65245;DHT22;51846;48.692;2.382;2023-09-19T10:53:25;19.78;60.11
65245;DHT22;51846;48.692;2.382;2023-09-19T10:55:56;19.78;60.45
65245;DHT22;51846;48.692;2.382;2023-09-19T10:58:31;19.79;60.43
65245;DHT22;51846;48.692;2.382;2023-09-19T11:01:02;19.62;61.40
65245;DHT22;51846;48.692;2.382;2023-09-19T11:03:43;19.78;61.57
65245;DHT22;51846;48.692;2.382;2023-09-19T11:06:11;19.85;58.52
65245;DHT22;51846;48.692;2.382;2023-09-19T11:14:15;19.86;59.64
65245;DHT22;51846;48.692;2.382;2023-09-19T11:30:42;19.79;60.15
65245;DHT22;51846;48.692;2.382;2023-09-19T11:33:20;19.85;60.44
65245;DHT22;51846;48.692;2.382;2023-09-19T11:36:13;20.05;60.05
65245;DHT22;51846;48.692;2.382;2023-09-19T11:43:52;20.16;61.34
65245;DHT22;51846;48.692;2.382;2023-09-19T11:46:20;20.22;61.04
65245;DHT22;51846;48.692;2.382;2023-09-19T11:48:48;20.34;61.07
65245;DHT22;51846;48.692;2.382;2023-09-19T11:51:19;20.33;60.79
65245;DHT22;51846;48.692;2.382;2023-09-19T11:53:49;20.32;61.15
65245;DHT22;51846;48.692;2.382;2023-09-19T11:56:16;20.33;61.21
65245;DHT22;51846;48.692;2.382;2023-09-19T11:58:45;20.26;61.59
65245;DHT22;51846;48.692;2.382;2023-09-19T12:01:14;20.05;62.14
65245;DHT22;51846;48.692;2.382;2023-09-19T12:03:46;20.09;63.06
65245;DHT22;51846;48.692;2.382;2023-09-19T12:06:15;19.88;62.70
65245;DHT22;51846;48.692;2.382;2023-09-19T12:08:42;19.96;62.92
65245;DHT22;51846;48.692;2.382;2023-09-19T12:11:13;19.98;63.27
65245;DHT22;51846;48.692;2.382;2023-09-19T12:13:46;19.88;63.47
65245;DHT22;51846;48.692;2.382;2023-09-19T12:16:21;19.91;63.43
65245;DHT22;51846;48.692;2.382;2023-09-19T12:18:48;19.99;63.07
65245;DHT22;51846;48.692;2.382;2023-09-19T12:21:31;20.08;63.07
65245;DHT22;51846;48.692;2.382;2023-09-19T12:26:39;20.11;63.25
65245;DHT22;51846;48.692;2.382;2023-09-19T12:29:11;20.21;63.04
65245;DHT22;51846;48.692;2.382;2023-09-19T12:31:47;20.28;62.77
65245;DHT22;51846;48.692;2.382;2023-09-19T12:34:17;20.33;62.43
65245;DHT22;51846;48.692;2.382;2023-09-19T12:36:44;20.42;62.67
65245;DHT22;51846;48.692;2.382;2023-09-19T12:39:10;20.47;61.38
65245;DHT22;51846;48.692;2.382;2023-09-19T12:41:37;20.42;61.99
65245;DHT22;51846;48.692;2.382;2023-09-19T12:44:04;20.33;61.60
65245;DHT22;51846;48.692;2.382;2023-09-19T12:46:34;20.30;63.13
65245;DHT22;51846;48.692;2.382;2023-09-19T12:49:17;20.34;63.86
65245;DHT22;51846;48.692;2.382;2023-09-19T12:51:45;20.39;63.47
65245;DHT22;51846;48.692;2.382;2023-09-19T12:54:11;20.56;63.54
65245;DHT22;51846;48.692;2.382;2023-09-19T12:56:40;20.79;62.01
65245;DHT22;51846;48.692;2.382;2023-09-19T12:59:14;20.77;61.34
65245;DHT22;51846;48.692;2.382;2023-09-19T13:01:43;20.74;61.70
65245;DHT22;51846;48.692;2.382;2023-09-19T13:04:21;20.84;61.72
65245;DHT22;51846;48.692;2.382;2023-09-19T13:06:55;20.94;60.88
65245;DHT22;51846;48.692;2.382;2023-09-19T13:09:29;20.83;61.30
65245;DHT22;51846;48.692;2.382;2023-09-19T13:12:00;20.94;61.06
65245;DHT22;51846;48.692;2.382;2023-09-19T13:14:28;20.97;61.02
65245;DHT22;51846;48.692;2.382;2023-09-19T13:17:08;20.94;61.57
65245;DHT22;51846;48.692;2.382;2023-09-19T13:19:47;20.98;60.90
65245;DHT22;51846;48.692;2.382;2023-09-19T13:22:44;21.00;60.43
65245;DHT22;51846;48.692;2.382;2023-09-19T13:25:16;21.07;60.58
65245;DHT22;51846;48.692;2.382;2023-09-19T13:27:49;21.06;60.00
65245;DHT22;51846;48.692;2.382;2023-09-19T13:30:21;21.17;59.07
65245;DHT22;51846;48.692;2.382;2023-09-19T13:32:47;21.35;58.40
65245;DHT22;51846;48.692;2.382;2023-09-19T13:35:14;21.45;58.16
65245;DHT22;51846;48.692;2.382;2023-09-19T13:37:40;21.55;57.41
65245;DHT22;51846;48.692;2.382;2023-09-19T13:40:13;21.65;58.14
65245;DHT22;51846;48.692;2.382;2023-09-19T13:42:39;21.69;57.78
65245;DHT22;51846;48.692;2.382;2023-09-19T13:45:05;21.78;58.25
65245;DHT22;51846;48.692;2.382;2023-09-19T13:47:31;21.93;57.84
65245;DHT22;51846;48.692;2.382;2023-09-19T13:49:58;22.03;56.25
65245;DHT22;51846;48.692;2.382;2023-09-19T13:52:23;21.98;55.89
65245;DHT22;51846;48.692;2.382;2023-09-19T13:54:52;21.92;56.06
65245;DHT22;51846;48.692;2.382;2023-09-19T13:57:26;21.83;55.90
65245;DHT22;51846;48.692;2.382;2023-09-19T13:59:52;21.74;56.33
65245;DHT22;51846;48.692;2.382;2023-09-19T14:02:21;21.68;56.31
65245;DHT22;51846;48.692;2.382;2023-09-19T14:04:51;21.61;57.18
65245;DHT22;51846;48.692;2.382;2023-09-19T14:07:16;21.61;56.47
65245;DHT22;51846;48.692;2.382;2023-09-19T14:09:43;21.61;56.16
65245;DHT22;51846;48.692;2.382;2023-09-19T14:12:08;21.58;58.05
65245;DHT22;51846;48.692;2.382;2023-09-19T14:14:34;21.59;57.20
65245;DHT22;51846;48.692;2.382;2023-09-19T14:16:59;21.65;57.67
65245;DHT22;51846;48.692;2.382;2023-09-19T14:19:27;21.66;56.83
65245;DHT22;51846;48.692;2.382;2023-09-19T14:21:53;21.59;57.86
65245;DHT22;51846;48.692;2.382;2023-09-19T14:24:22;21.57;58.21
65245;DHT22;51846;48.692;2.382;2023-09-19T14:26:48;21.55;58.14
65245;DHT22;51846;48.692;2.382;2023-09-19T14:29:14;21.63;58.58
65245;DHT22;51846;48.692;2.382;2023-09-19T14:31:40;21.63;57.93
65245;DHT22;51846;48.692;2.382;2023-09-19T14:34:06;21.54;58.48
65245;DHT22;51846;48.692;2.382;2023-09-19T14:36:32;21.54;59.50
65245;DHT22;51846;48.692;2.382;2023-09-19T14:38:58;21.48;59.04
65245;DHT22;51846;48.692;2.382;2023-09-19T14:41:24;21.49;58.34
65245;DHT22;51846;48.692;2.382;2023-09-19T14:43:53;21.54;59.61
65245;DHT22;51846;48.692;2.382;2023-09-19T14:46:21;21.61;58.99
65245;DHT22;51846;48.692;2.382;2023-09-19T14:48:46;21.68;58.97
65245;DHT22;51846;48.692;2.382;2023-09-19T14:51:13;21.71;59.04
65245;DHT22;51846;48.692;2.382;2023-09-19T14:53:39;21.81;58.51
65245;DHT22;51846;48.692;2.382;2023-09-19T14:56:06;21.81;58.86
65245;DHT22;51846;48.692;2.382;2023-09-19T14:58:33;21.88;58.95
65245;DHT22;51846;48.692;2.382;2023-09-19T15:01:13;21.96;57.98
65245;DHT22;51846;48.692;2.382;2023-09-19T15:03:40;21.91;58.17
65245;DHT22;51846;48.692;2.382;2023-09-19T15:06:10;21.99;57.65
65245;DHT22;51846;48.692;2.382;2023-09-19T15:08:40;22.02;57.91
65245;DHT22;51846;48.692;2.382;2023-09-19T15:11:08;22.02;58.01
65245;DHT22;51846;48.692;2.382;2023-09-19T15:13:34;22.05;57.24
65245;DHT22;51846;48.692;2.382;2023-09-19T15:16:04;22.09;57.72
65245;DHT22;51846;48.692;2.382;2023-09-19T15:18:30;22.17;56.70
65245;DHT22;51846;48.692;2.382;2023-09-19T15:20:57;22.16;56.94
65245;DHT22;51846;48.692;2.382;2023-09-19T15:23:22;22.10;57.51
65245;DHT22;51846;48.692;2.382;2023-09-19T15:25:48;22.10;57.44
65245;DHT22;51846;48.692;2.382;2023-09-19T15:28:17;22.12;57.70
65245;DHT22;51846;48.692;2.382;2023-09-19T15:30:43;22.08;57.62
65245;DHT22;51846;48.692;2.382;2023-09-19T15:33:09;22.05;57.42
65245;DHT22;51846;48.692;2.382;2023-09-19T15:35:34;22.01;57.29
65245;DHT22;51846;48.692;2.382;2023-09-19T15:38:02;21.96;57.05
65245;DHT22;51846;48.692;2.382;2023-09-19T15:40:28;21.88;58.04
65245;DHT22;51846;48.692;2.382;2023-09-19T15:42:54;21.91;57.94
65245;DHT22;51846;48.692;2.382;2023-09-19T15:45:21;21.88;58.16
65245;DHT22;51846;48.692;2.382;2023-09-19T15:47:46;21.89;58.27
65245;DHT22;51846;48.692;2.382;2023-09-19T15:50:11;21.79;59.06
65245;DHT22;51846;48.692;2.382;2023-09-19T15:52:41;21.79;59.24
65245;DHT22;51846;48.692;2.382;2023-09-19T15:55:07;21.81;59.05
65245;DHT22;51846;48.692;2.382;2023-09-19T15:57:36;21.92;59.04
65245;DHT22;51846;48.692;2.382;2023-09-19T16:00:01;21.81;59.13
65245;DHT22;51846;48.692;2.382;2023-09-19T16:02:29;21.82;58.75
65245;DHT22;51846;48.692;2.382;2023-09-19T16:04:55;21.86;59.01
65245;DHT22;51846;48.692;2.382;2023-09-19T16:07:20;21.83;58.67
65245;DHT22;51846;48.692;2.382;2023-09-19T16:09:46;21.82;58.84
65245;DHT22;51846;48.692;2.382;2023-09-19T16:12:11;21.89;58.83
65245;DHT22;51846;48.692;2.382;2023-09-19T16:14:39;21.98;58.77
65245;DHT22;51846;48.692;2.382;2023-09-19T16:17:05;22.01;58.68
65245;DHT22;51846;48.692;2.382;2023-09-19T16:19:32;21.98;58.87
65245;DHT22;51846;48.692;2.382;2023-09-19T16:21:58;21.89;59.39
65245;DHT22;51846;48.692;2.382;2023-09-19T16:24:24;21.92;59.56
65245;DHT22;51846;48.692;2.382;2023-09-19T16:26:50;21.82;59.95